Time;durP1;ratioP1;P1;durP2;ratioP2;P2;SDS_P1;SDS_P2;PMS_P1;PMS_P2;Temp;Humidity;BMP_temperature;BMP_pressure;BME280_temperature;BME280_humidity;BME280_pressure;Samples;Min_cycle;Max_cycle;Signal;HPM_P1;HPM_P2
2023/10/08 00:01:11;;;;;;;7.55;3.55;;;17.90;99.00;;;;;;4962336;28;20049;-81
2023/10/08 00:03:37;;;;;;;9.40;3.80;;;18.00;99.10;;;;;;4982176;28;20034;-81
2023/10/08 00:06:07;;;;;;;6.82;3.95;;;17.90;99.10;;;;;;4975886;28;20027;-81
2023/10/08 00:08:35;;;;;;;8.50;3.25;;;17.90;99.10;;;;;;4980687;28;20474;-81
2023/10/08 00:11:07;;;;;;;8.70;4.32;;;17.80;99.20;;;;;;4948089;28;20110;-81
2023/10/08 00:13:39;;;;;;;9.60;3.67;;;17.80;99.10;;;;;;4964283;28;20048;-81
2023/10/08 00:16:15;;;;;;;8.23;3.35;;;17.80;99.20;;;;;;4970722;28;20031;-81
2023/10/08 00:18:42;;;;;;;5.75;3.35;;;17.80;99.10;;;;;;4964756;28;20417;-81
2023/10/08 00:23:41;;;;;;;6.95;3.80;;;17.80;99.10;;;;;;4982969;28;20026;-81
2023/10/08 00:26:07;;;;;;;9.30;3.35;;;17.80;99.20;;;;;;4948403;28;20279;-81
2023/10/08 00:28:33;;;;;;;9.20;4.22;;;17.80;99.20;;;;;;4973328;28;20509;-80
2023/10/08 00:31:11;;;;;;;9.43;4.05;;;17.80;99.20;;;;;;4975804;28;20027;-81
2023/10/08 00:33:37;;;;;;;9.68;4.35;;;17.80;99.30;;;;;;4976318;28;20495;-81
2023/10/08 00:36:19;;;;;;;8.25;3.42;;;17.80;99.20;;;;;;4960967;28;20041;-81
2023/10/08 00:38:58;;;;;;;6.95;3.22;;;17.80;99.50;;;;;;4968809;28;20030;-81
2023/10/08 00:41:28;;;;;;;8.70;4.22;;;17.70;99.30;;;;;;4959846;28;20026;-81
2023/10/08 00:43:55;;;;;;;6.32;3.50;;;17.70;99.20;;;;;;4967063;28;20026;-80
2023/10/08 00:46:27;;;;;;;7.20;3.80;;;17.70;99.30;;;;;;4958131;28;20096;-81
2023/10/08 00:48:54;;;;;;;6.28;3.67;;;17.70;99.30;;;;;;4961257;28;20539;-81
2023/10/08 00:53:51;;;;;;;12.70;4.68;;;17.70;99.30;;;;;;4977724;28;21395;-81
2023/10/08 00:56:19;;;;;;;6.65;3.67;;;17.60;99.30;;;;;;4959227;28;20037;-81
2023/10/08 00:58:48;;;;;;;6.18;3.63;;;17.60;99.30;;;;;;4946615;28;20030;-81
2023/10/08 01:01:16;;;;;;;9.90;4.03;;;17.60;99.30;;;;;;4976374;28;20035;-81
2023/10/08 01:03:44;;;;;;;10.85;4.25;;;17.60;99.30;;;;;;4975202;28;20077;-81
2023/10/08 01:06:11;;;;;;;8.50;3.30;;;17.60;99.30;;;;;;4960652;28;20032;-80
2023/10/08 01:08:37;;;;;;;6.25;3.38;;;17.60;99.40;;;;;;4978526;28;20082;-81
2023/10/08 01:11:31;;;;;;;5.95;2.97;;;17.60;99.30;;;;;;4962900;28;20035;-81
2023/10/08 01:13:58;;;;;;;6.65;3.45;;;17.50;99.40;;;;;;4975042;28;20657;-81
2023/10/08 01:16:26;;;;;;;5.78;3.35;;;17.50;99.40;;;;;;4958744;28;20116;-81
2023/10/08 01:18:54;;;;;;;8.30;3.88;;;17.50;99.30;;;;;;4978639;28;20509;-81
2023/10/08 01:21:31;;;;;;;10.60;4.25;;;17.40;99.40;;;;;;4960278;28;20081;-81
2023/10/08 01:24:00;;;;;;;7.15;3.17;;;17.40;99.50;;;;;;4961699;28;20306;-81
2023/10/08 01:26:25;;;;;;;5.78;3.25;;;17.40;99.50;;;;;;4971775;28;20391;-81
2023/10/08 01:28:52;;;;;;;8.68;3.55;;;17.40;99.50;;;;;;4974597;28;20038;-81
2023/10/08 01:31:18;;;;;;;11.07;4.55;;;17.40;99.50;;;;;;4974853;28;20061;-81
2023/10/08 01:33:50;;;;;;;11.50;4.78;;;17.40;99.60;;;;;;4963460;28;20062;-81
2023/10/08 01:36:15;;;;;;;11.68;4.47;;;17.30;99.60;;;;;;4968877;28;20030;-81
2023/10/08 01:38:41;;;;;;;7.60;4.38;;;17.30;99.70;;;;;;4959092;28;20080;-81
2023/10/08 01:41:51;;;;;;;8.15;3.70;;;17.30;99.50;;;;;;4961786;28;20038;-81
2023/10/08 01:43:59;;;;;;;6.13;4.00;;;17.30;99.40;;;;;;4969880;28;20045;-81
2023/10/08 01:46:25;;;;;;;6.80;2.92;;;17.30;99.50;;;;;;4973547;28;20120;-81
2023/10/08 01:48:59;;;;;;;13.73;3.97;;;17.30;99.50;;;;;;4959110;28;20478;-81
2023/10/08 01:51:28;;;;;;;9.55;4.18;;;17.30;99.60;;;;;;4959065;28;20046;-81
2023/10/08 01:53:58;;;;;;;6.82;3.38;;;17.30;99.60;;;;;;4976564;28;20040;-81
2023/10/08 01:56:24;;;;;;;6.53;3.53;;;17.30;99.50;;;;;;4960383;28;20023;-82
2023/10/08 01:58:49;;;;;;;8.75;3.33;;;17.30;99.50;;;;;;4973880;28;20037;-81
2023/10/08 02:01:22;;;;;;;8.32;3.92;;;17.30;99.50;;;;;;4958326;28;20041;-81
2023/10/08 02:03:48;;;;;;;8.02;3.72;;;17.30;99.50;;;;;;4971372;28;20574;-81
2023/10/08 02:06:13;;;;;;;7.40;4.43;;;17.30;99.80;;;;;;4958222;28;20042;-81
2023/10/08 02:08:39;;;;;;;8.02;4.43;;;17.20;99.40;;;;;;4957959;28;20037;-81
2023/10/08 02:11:05;;;;;;;6.85;3.45;;;17.20;99.50;;;;;;4977879;28;20034;-81
2023/10/08 02:13:31;;;;;;;7.85;3.70;;;17.20;99.50;;;;;;4958419;28;20477;-81
2023/10/08 02:15:58;;;;;;;9.13;3.85;;;17.20;99.60;;;;;;4972074;28;20042;-81
2023/10/08 02:18:24;;;;;;;7.35;3.80;;;17.20;99.50;;;;;;4957086;28;20491;-81
2023/10/08 02:20:50;;;;;;;10.27;3.97;;;17.20;99.60;;;;;;4974671;28;20033;-81
2023/10/08 02:23:17;;;;;;;10.10;4.72;;;17.20;99.50;;;;;;4972944;28;20193;-81
2023/10/08 02:25:44;;;;;;;9.20;4.20;;;17.10;99.60;;;;;;4977496;28;20564;-81
2023/10/08 02:28:12;;;;;;;10.00;4.35;;;17.10;99.70;;;;;;4973362;28;20084;-81
2023/10/08 02:30:38;;;;;;;6.75;3.83;;;17.00;99.60;;;;;;4974000;28;20145;-80
2023/10/08 02:33:13;;;;;;;6.85;3.90;;;17.10;99.50;;;;;;4989670;28;20536;-81
2023/10/08 02:35:40;;;;;;;6.97;3.83;;;17.00;99.70;;;;;;4960083;28;20541;-81
2023/10/08 02:38:06;;;;;;;8.27;3.88;;;17.20;99.70;;;;;;4974190;28;20486;-81
2023/10/08 02:40:31;;;;;;;10.40;4.25;;;17.10;99.60;;;;;;4939943;28;20045;-80
2023/10/08 02:43:00;;;;;;;8.75;4.22;;;17.20;99.70;;;;;;4973206;28;20034;-81
2023/10/08 02:45:29;;;;;;;12.40;5.00;;;17.10;99.60;;;;;;4975897;28;20031;-81
2023/10/08 02:47:55;;;;;;;7.47;4.28;;;17.10;99.70;;;;;;4973351;28;20045;-81
2023/10/08 02:50:22;;;;;;;9.07;4.13;;;17.00;99.70;;;;;;4952262;28;20491;-81
2023/10/08 02:52:50;;;;;;;6.25;3.45;;;16.90;99.80;;;;;;4939563;28;20034;-81
2023/10/08 02:55:34;;;;;;;8.45;3.83;;;16.90;99.80;;;;;;4954378;28;20475;-81
2023/10/08 02:58:02;;;;;;;11.23;5.05;;;17.00;99.80;;;;;;4971737;28;20039;-81
2023/10/08 03:00:29;;;;;;;8.77;3.83;;;16.90;99.80;;;;;;4956129;28;20120;-81
2023/10/08 03:02:56;;;;;;;10.10;4.68;;;16.90;99.90;;;;;;4977094;28;20512;-81
2023/10/08 03:05:22;;;;;;;8.95;3.92;;;16.80;99.90;;;;;;4971101;28;20057;-81
2023/10/08 03:07:51;;;;;;;9.23;4.03;;;16.80;99.90;;;;;;4972306;28;20514;-80
2023/10/08 03:10:19;;;;;;;7.35;4.40;;;16.70;99.90;;;;;;4957437;28;20489;-81
2023/10/08 03:12:49;;;;;;;11.40;4.15;;;16.80;99.90;;;;;;4982875;28;20037;-81
2023/10/08 03:15:31;;;;;;;8.32;2.90;;;16.70;99.90;;;;;;4972183;28;20038;-81
2023/10/08 03:18:08;;;;;;;10.88;4.10;;;16.70;99.90;;;;;;4976963;28;20050;-81
2023/10/08 03:20:38;;;;;;;9.18;4.50;;;16.80;99.90;;;;;;4975741;28;20527;-80
2023/10/08 03:23:33;;;;;;;12.23;5.20;;;16.70;99.90;;;;;;4971583;28;20446;-81
2023/10/08 03:25:56;;;;;;;10.43;5.07;;;16.70;99.80;;;;;;4975265;28;20031;-81
2023/10/08 03:28:24;;;;;;;8.48;4.47;;;16.70;99.90;;;;;;4957105;28;20074;-81
2023/10/08 03:31:02;;;;;;;8.63;3.33;;;16.70;99.90;;;;;;4955030;28;20043;-81
2023/10/08 03:33:29;;;;;;;8.10;4.20;;;16.70;99.90;;;;;;4950972;28;20046;-81
2023/10/08 03:35:55;;;;;;;8.65;4.10;;;16.70;99.90;;;;;;4971934;28;20406;-81
2023/10/08 03:38:28;;;;;;;10.25;3.83;;;16.80;99.90;;;;;;4973332;28;20041;-81
2023/10/08 03:40:58;;;;;;;9.25;4.00;;;16.80;99.80;;;;;;4955134;28;20033;-81
2023/10/08 03:43:33;;;;;;;9.60;3.92;;;16.80;99.80;;;;;;4951081;28;20126;-81
2023/10/08 03:46:05;;;;;;;6.65;3.42;;;16.70;99.90;;;;;;4956202;28;20489;-81
2023/10/08 03:48:37;;;;;;;7.95;3.97;;;16.70;99.90;;;;;;4955481;28;20443;-80
2023/10/08 03:51:11;;;;;;;8.20;3.75;;;16.70;99.90;;;;;;4986730;28;20034;-80
2023/10/08 03:53:58;;;;;;;10.50;3.92;;;16.70;99.90;;;;;;4972088;28;20031;-81
2023/10/08 03:56:29;;;;;;;7.43;3.72;;;16.70;99.90;;;;;;4971604;28;20494;-81
2023/10/08 03:58:58;;;;;;;9.50;3.75;;;16.70;99.90;;;;;;4948910;28;20123;-81
2023/10/08 04:01:26;;;;;;;11.25;4.50;;;16.70;99.80;;;;;;4941651;28;20041;-80
2023/10/08 04:06:22;;;;;;;10.02;3.92;;;16.60;99.90;;;;;;4972764;28;20310;-80
2023/10/08 04:11:35;;;;;;;10.10;4.45;;;16.60;99.90;;;;;;4972563;28;20068;-80
2023/10/08 04:14:02;;;;;;;8.57;3.75;;;16.60;99.90;;;;;;4956189;28;20034;-81
2023/10/08 04:16:36;;;;;;;10.32;5.10;;;16.60;99.90;;;;;;4958009;28;20380;-80
2023/10/08 04:19:03;;;;;;;11.18;4.65;;;16.60;99.90;;;;;;4959386;28;20039;-81
2023/10/08 04:21:29;;;;;;;8.73;4.65;;;16.50;99.90;;;;;;4973920;28;20042;-80
2023/10/08 04:23:57;;;;;;;10.25;4.15;;;16.60;99.90;;;;;;4957724;28;20076;-80
2023/10/08 04:26:23;;;;;;;11.45;4.07;;;16.60;99.90;;;;;;4959567;28;20061;-80
2023/10/08 04:28:57;;;;;;;7.47;4.45;;;16.60;99.90;;;;;;4963927;28;20088;-80
2023/10/08 04:31:46;;;;;;;10.70;4.65;;;16.60;99.90;;;;;;4960943;28;20031;-80
2023/10/08 04:34:22;;;;;;;9.52;4.22;;;16.60;99.90;;;;;;4970372;28;20033;-80
2023/10/08 04:36:54;;;;;;;10.73;4.93;;;16.60;99.90;;;;;;4960537;28;20038;-80
2023/10/08 04:39:26;;;;;;;10.68;4.22;;;16.50;99.90;;;;;;4961912;28;20117;-82
2023/10/08 04:41:53;;;;;;;9.43;4.13;;;16.40;99.90;;;;;;4976587;28;20073;-80
2023/10/08 04:44:21;;;;;;;11.20;5.47;;;16.40;99.90;;;;;;4961920;28;20242;-81
2023/10/08 04:46:48;;;;;;;9.88;4.43;;;16.40;99.90;;;;;;4962004;28;20093;-80
2023/10/08 04:51:58;;;;;;;9.48;4.43;;;16.30;99.90;;;;;;4980358;28;20520;-80
2023/10/08 04:54:30;;;;;;;13.80;5.07;;;16.40;99.90;;;;;;4961966;28;20046;-80
2023/10/08 04:57:00;;;;;;;7.68;4.30;;;16.40;99.90;;;;;;4961491;28;20605;-80
2023/10/08 04:59:32;;;;;;;9.32;4.55;;;16.40;99.90;;;;;;4972823;28;20068;-80
2023/10/08 05:02:19;;;;;;;11.85;4.97;;;16.40;99.90;;;;;;4974808;28;20045;-80
2023/10/08 05:07:21;;;;;;;10.70;5.28;;;16.30;99.90;;;;;;4971475;28;20376;-81
2023/10/08 05:12:37;;;;;;;13.07;5.15;;;16.20;99.90;;;;;;4976521;28;20039;-81
2023/10/08 05:28:30;;;;;;;16.42;5.30;;;16.20;99.90;;;;;;4972087;28;20045;-81
2023/10/08 05:31:31;;;;;;;8.18;4.32;;;16.30;99.90;;;;;;4963423;28;20023;-79
2023/10/08 05:34:15;;;;;;;8.27;4.18;;;16.30;99.90;;;;;;4976577;28;20058;-79
2023/10/08 05:42:12;;;;;;;13.15;4.57;;;16.20;99.90;;;;;;4976738;28;20038;-80
2023/10/08 05:44:45;;;;;;;10.82;4.43;;;16.30;99.90;;;;;;4977174;28;20398;-79
2023/10/08 05:47:38;;;;;;;11.30;4.97;;;16.30;99.90;;;;;;4972945;28;20070;-79
2023/10/08 05:55:26;;;;;;;10.05;4.40;;;16.30;99.90;;;;;;4985290;28;20536;-80
2023/10/08 05:58:24;;;;;;;11.70;4.57;;;16.20;99.90;;;;;;4975873;28;20048;-80
2023/10/08 06:14:36;;;;;;;7.90;4.60;;;16.10;99.90;;;;;;4976475;28;20087;-79
2023/10/08 06:17:13;;;;;;;9.32;4.78;;;16.20;99.90;;;;;;4980757;28;20355;-79
2023/10/08 06:19:43;;;;;;;11.55;4.60;;;16.10;99.90;;;;;;4967082;28;20039;-79
2023/10/08 06:22:11;;;;;;;11.32;4.18;;;16.10;99.90;;;;;;4928983;28;20034;-80
2023/10/08 06:24:38;;;;;;;10.93;4.75;;;16.00;99.90;;;;;;4975577;28;20405;-79
2023/10/08 06:27:04;;;;;;;14.05;5.50;;;16.20;99.90;;;;;;4977753;28;20068;-80
2023/10/08 06:29:33;;;;;;;8.98;4.50;;;16.20;99.90;;;;;;4958079;28;20496;-80
2023/10/08 06:32:02;;;;;;;9.40;4.72;;;16.10;99.90;;;;;;4943209;28;20038;-79
2023/10/08 06:34:28;;;;;;;8.05;3.67;;;16.10;99.90;;;;;;4964082;28;20046;-80
2023/10/08 06:36:55;;;;;;;14.88;5.00;;;16.10;99.90;;;;;;4971629;28;20085;-80
2023/10/08 06:39:25;;;;;;;11.15;4.75;;;16.10;99.90;;;;;;4961590;28;20560;-79
2023/10/08 06:41:53;;;;;;;10.48;5.35;;;16.10;99.90;;;;;;4956177;28;20045;-80
2023/10/08 06:44:18;;;;;;;11.55;5.13;;;16.00;99.90;;;;;;4958842;28;20038;-80
2023/10/08 06:46:45;;;;;;;8.10;3.83;;;16.00;99.90;;;;;;4975061;28;20072;-80
2023/10/08 06:49:15;;;;;;;8.23;4.07;;;16.10;99.90;;;;;;4972695;28;20045;-79
2023/10/08 06:51:43;;;;;;;10.90;4.35;;;16.10;99.90;;;;;;4944706;28;20065;-78
2023/10/08 06:54:10;;;;;;;8.65;4.22;;;16.10;99.90;;;;;;4976523;28;20037;-80
2023/10/08 06:56:36;;;;;;;10.50;4.57;;;16.20;99.90;;;;;;4962224;28;20034;-79
2023/10/08 06:59:03;;;;;;;16.17;6.00;;;16.20;99.90;;;;;;4959544;28;20047;-79
2023/10/08 07:01:38;;;;;;;13.93;5.72;;;16.20;99.90;;;;;;4956650;28;20114;-79
2023/10/08 07:04:06;;;;;;;17.15;6.43;;;16.10;99.90;;;;;;4977455;28;20397;-79
2023/10/08 07:06:33;;;;;;;9.32;4.40;;;16.10;99.90;;;;;;4975911;28;20064;-79
2023/10/08 07:08:59;;;;;;;12.02;4.90;;;16.20;99.90;;;;;;4970546;28;20038;-79
2023/10/08 07:11:26;;;;;;;12.25;5.18;;;16.20;99.90;;;;;;4939187;28;20038;-80
2023/10/08 07:13:52;;;;;;;16.13;5.55;;;16.20;99.90;;;;;;4957425;28;20047;-79
2023/10/08 07:16:18;;;;;;;12.85;4.95;;;16.20;99.90;;;;;;4973337;28;20395;-80
2023/10/08 07:19:01;;;;;;;10.85;5.15;;;16.20;99.90;;;;;;4960391;28;20030;-80
2023/10/08 07:21:37;;;;;;;13.00;5.25;;;16.20;99.90;;;;;;4969927;28;20030;-79
2023/10/08 07:24:08;;;;;;;15.15;6.07;;;16.20;99.90;;;;;;4960380;28;20053;-80
2023/10/08 07:26:37;;;;;;;10.85;5.18;;;16.20;99.90;;;;;;4959808;28;20066;-80
2023/10/08 07:29:09;;;;;;;12.30;4.85;;;16.20;99.90;;;;;;4958599;28;20094;-80
2023/10/08 07:31:36;;;;;;;9.68;4.70;;;16.20;99.90;;;;;;4983633;28;20406;-80
2023/10/08 07:34:47;;;;;;;13.43;5.90;;;16.20;99.90;;;;;;4972838;28;20170;-79
2023/10/08 07:36:52;;;;;;;6.63;3.85;;;16.20;99.90;;;;;;4971042;28;20054;-79
2023/10/08 07:41:50;;;;;;;10.73;4.78;;;16.20;99.90;;;;;;4975073;28;20085;-81
2023/10/08 07:44:16;;;;;;;20.50;5.88;;;16.30;99.90;;;;;;4937579;28;20042;-81
2023/10/08 07:46:41;;;;;;;12.40;5.78;;;16.30;99.90;;;;;;4955303;28;20121;-80
2023/10/08 07:49:07;;;;;;;14.25;5.38;;;16.40;99.90;;;;;;4956319;28;20038;-81
2023/10/08 07:51:33;;;;;;;11.05;5.53;;;16.40;99.90;;;;;;4976201;28;20134;-79
2023/10/08 07:53:59;;;;;;;17.30;6.45;;;16.50;99.90;;;;;;4975983;28;20086;-80
2023/10/08 07:56:27;;;;;;;30.45;10.60;;;16.50;99.90;;;;;;4973116;28;20121;-79
2023/10/08 07:58:56;;;;;;;30.92;12.88;;;16.50;99.90;;;;;;4974967;28;20034;-81
2023/10/08 08:01:24;;;;;;;30.77;12.63;;;16.40;99.90;;;;;;4974531;28;20084;-81
2023/10/08 08:03:50;;;;;;;34.80;12.45;;;16.60;99.90;;;;;;4973188;28;20046;-81
2023/10/08 08:06:15;;;;;;;24.45;10.75;;;16.60;99.90;;;;;;4973058;28;20043;-81
2023/10/08 08:08:41;;;;;;;25.80;11.10;;;16.60;99.90;;;;;;4977076;28;20405;-82
2023/10/08 08:11:11;;;;;;;28.83;10.55;;;16.70;99.90;;;;;;4977662;28;20038;-81
2023/10/08 08:13:43;;;;;;;34.65;12.20;;;16.70;99.90;;;;;;4980276;28;20030;-81
2023/10/08 08:16:18;;;;;;;39.40;12.10;;;16.70;99.90;;;;;;4961183;28;20034;-82
2023/10/08 08:18:44;;;;;;;30.88;12.27;;;16.70;99.90;;;;;;4975858;28;20093;-80
2023/10/08 08:21:15;;;;;;;29.38;11.10;;;16.80;99.90;;;;;;4959786;28;20038;-81
2023/10/08 08:23:47;;;;;;;29.30;12.10;;;16.80;99.90;;;;;;4950065;28;20031;-80
2023/10/08 08:26:26;;;;;;;31.98;12.68;;;16.80;99.90;;;;;;4961642;28;20125;-79
2023/10/08 08:28:56;;;;;;;18.02;9.00;;;16.80;99.90;;;;;;4964896;28;20026;-79
2023/10/08 08:31:23;;;;;;;23.50;8.50;;;16.80;99.90;;;;;;4981270;28;20180;-79
2023/10/08 08:33:59;;;;;;;17.08;8.15;;;16.90;99.90;;;;;;4973480;28;20109;-79
2023/10/08 08:36:26;;;;;;;15.80;7.38;;;16.90;99.90;;;;;;4964450;28;20031;-79
2023/10/08 08:38:52;;;;;;;12.57;6.90;;;16.80;99.90;;;;;;4963426;28;20548;-80
2023/10/08 08:41:19;;;;;;;11.40;6.75;;;16.90;99.90;;;;;;4980669;28;20034;-80
2023/10/08 08:43:49;;;;;;;8.85;6.22;;;16.90;99.90;;;;;;4963396;28;20034;-80
2023/10/08 08:46:14;;;;;;;11.02;5.70;;;16.90;99.90;;;;;;4972322;28;20044;-80
2023/10/08 08:48:41;;;;;;;7.20;6.43;;;16.90;99.90;;;;;;4961111;28;20034;-80
2023/10/08 08:51:07;;;;;;;16.13;7.07;;;17.00;99.90;;;;;;4960288;28;20038;-80
2023/10/08 08:53:33;;;;;;;15.85;10.80;;;17.00;99.90;;;;;;4970387;28;20023;-80
2023/10/08 08:56:00;;;;;;;30.55;19.13;;;17.00;99.90;;;;;;4947708;28;20077;-80
2023/10/08 08:58:25;;;;;;;32.03;20.58;;;16.90;99.90;;;;;;4964482;28;20034;-79
2023/10/08 09:00:52;;;;;;;33.67;23.17;;;16.90;99.90;;;;;;4976546;28;20034;-80
2023/10/08 09:03:19;;;;;;;34.17;25.95;;;16.90;99.90;;;;;;4976532;28;20486;-80
2023/10/08 09:05:49;;;;;;;37.90;24.63;;;16.90;99.90;;;;;;4963728;28;20027;-79
2023/10/08 09:08:18;;;;;;;34.50;22.75;;;16.80;99.90;;;;;;4967115;28;20038;-80
2023/10/08 09:10:52;;;;;;;32.20;21.17;;;16.80;99.90;;;;;;4962602;28;20105;-79
2023/10/08 09:13:21;;;;;;;32.00;20.10;;;16.80;99.90;;;;;;4976392;28;20107;-79
2023/10/08 09:15:47;;;;;;;23.98;15.25;;;16.80;99.90;;;;;;4976394;28;20391;-79
2023/10/08 09:18:14;;;;;;;25.77;15.27;;;16.80;99.90;;;;;;4983687;28;20045;-79
2023/10/08 09:20:43;;;;;;;16.60;12.65;;;16.80;99.90;;;;;;4947302;28;20406;-79
2023/10/08 09:23:12;;;;;;;16.00;8.90;;;16.80;99.90;;;;;;4943549;28;20065;-78
2023/10/08 09:25:42;;;;;;;11.30;7.78;;;16.90;99.90;;;;;;4960651;28;20043;-78
2023/10/08 09:28:08;;;;;;;18.25;8.35;;;16.90;99.90;;;;;;4955326;28;20030;-79
2023/10/08 09:30:37;;;;;;;22.33;8.25;;;16.80;99.90;;;;;;4971652;28;20513;-79
2023/10/08 09:33:05;;;;;;;14.07;6.60;;;16.80;99.90;;;;;;4960342;28;20035;-78
2023/10/08 09:35:30;;;;;;;12.02;6.20;;;16.90;99.90;;;;;;4959456;28;20030;-78
2023/10/08 09:37:56;;;;;;;15.55;5.32;;;16.80;99.90;;;;;;4971651;28;20044;-79
2023/10/08 09:40:21;;;;;;;10.82;5.07;;;16.90;99.90;;;;;;4973963;28;20053;-78
2023/10/08 09:42:47;;;;;;;9.30;4.72;;;16.80;99.90;;;;;;4958463;28;20038;-79
2023/10/08 09:45:16;;;;;;;11.38;5.03;;;16.80;99.90;;;;;;4975294;28;20037;-79
2023/10/08 09:47:46;;;;;;;9.15;3.80;;;16.90;99.90;;;;;;4946263;28;20034;-78
2023/10/08 09:50:13;;;;;;;7.70;3.78;;;16.80;99.90;;;;;;4958132;28;20122;-79
2023/10/08 09:53:04;;;;;;;7.97;3.97;;;16.70;99.90;;;;;;4961454;28;20126;-79
2023/10/08 09:55:29;;;;;;;5.97;3.60;;;16.80;99.90;;;;;;4960381;28;20407;-79
2023/10/08 09:57:55;;;;;;;8.52;3.47;;;16.80;99.90;;;;;;4941377;28;20042;-79
2023/10/08 10:00:30;;;;;;;9.80;3.53;;;16.90;99.90;;;;;;4940210;28;20088;-79
2023/10/08 10:03:01;;;;;;;6.40;3.08;;;16.90;99.90;;;;;;4962616;28;20049;-79
2023/10/08 10:05:29;;;;;;;7.90;2.63;;;16.90;99.90;;;;;;4978032;28;20038;-78
2023/10/08 10:07:56;;;;;;;7.30;2.65;;;16.90;99.90;;;;;;4958210;28;20148;-79
2023/10/08 10:10:33;;;;;;;6.43;2.97;;;16.80;99.90;;;;;;4958445;28;20058;-79
2023/10/08 10:12:59;;;;;;;4.18;2.20;;;16.80;99.90;;;;;;4973279;28;20038;-79
2023/10/08 10:15:25;;;;;;;3.50;1.90;;;16.80;99.90;;;;;;4966813;28;20121;-79
2023/10/08 10:17:50;;;;;;;2.83;1.25;;;16.80;99.90;;;;;;4959487;28;20114;-79
2023/10/08 10:20:16;;;;;;;6.20;1.60;;;16.80;99.90;;;;;;4956596;28;20137;-79
2023/10/08 10:22:43;;;;;;;2.92;1.38;;;16.70;99.90;;;;;;4957950;28;20045;-78
2023/10/08 10:25:17;;;;;;;4.78;1.23;;;16.70;99.90;;;;;;4960821;28;20030;-80
2023/10/08 10:28:21;;;;;;;2.78;1.17;;;16.80;99.90;;;;;;4975193;28;20037;-79
2023/10/08 10:30:48;;;;;;;7.20;1.85;;;16.80;99.90;;;;;;4957757;28;20060;-83
2023/10/08 10:33:13;;;;;;;2.33;0.93;;;16.90;99.90;;;;;;4971199;28;20035;-81
2023/10/08 10:35:41;;;;;;;3.35;0.80;;;17.00;99.90;;;;;;4959129;28;20117;-83
2023/10/08 10:38:07;;;;;;;5.18;1.30;;;17.00;99.90;;;;;;4959603;28;20498;-81
2023/10/08 10:40:39;;;;;;;2.30;0.73;;;17.10;99.90;;;;;;4979072;28;20038;-78
2023/10/08 10:43:09;;;;;;;8.35;1.83;;;17.00;99.90;;;;;;4958452;28;20030;-78
2023/10/08 10:45:43;;;;;;;5.47;1.10;;;17.10;99.90;;;;;;4969700;28;20041;-78
2023/10/08 10:48:20;;;;;;;4.57;1.13;;;17.20;99.90;;;;;;4966903;28;20129;-79
2023/10/08 10:53:44;;;;;;;4.47;1.52;;;17.20;99.90;;;;;;4974164;28;20790;-78
2023/10/08 10:56:19;;;;;;;6.05;1.48;;;17.30;99.90;;;;;;4957991;28;20030;-78
2023/10/08 10:58:47;;;;;;;7.03;1.40;;;17.30;99.90;;;;;;4973729;28;20338;-78
2023/10/08 11:01:25;;;;;;;6.93;1.30;;;17.30;99.90;;;;;;4943784;28;20496;-78
2023/10/08 11:03:57;;;;;;;5.65;0.98;;;17.30;99.90;;;;;;4975874;28;20034;-78
2023/10/08 11:06:25;;;;;;;4.72;1.08;;;17.40;99.90;;;;;;4958989;28;20027;-78
2023/10/08 11:08:52;;;;;;;3.83;1.10;;;17.40;99.90;;;;;;4958781;28;20054;-77
2023/10/08 11:11:18;;;;;;;4.85;1.30;;;17.50;99.90;;;;;;4977810;28;20479;-78
2023/10/08 11:13:50;;;;;;;2.13;1.00;;;17.50;99.90;;;;;;4957709;28;20505;-80
2023/10/08 11:16:15;;;;;;;6.70;1.52;;;17.60;99.90;;;;;;4973977;28;20609;-81
2023/10/08 11:18:50;;;;;;;4.53;1.60;;;17.60;99.90;;;;;;4974887;28;20782;-80
2023/10/08 11:21:22;;;;;;;2.88;1.38;;;17.70;99.90;;;;;;4958882;28;20260;-80
2023/10/08 11:23:58;;;;;;;6.50;2.05;;;17.80;99.90;;;;;;4953979;28;20034;-79
2023/10/08 11:26:35;;;;;;;8.68;2.53;;;17.60;99.90;;;;;;4961298;28;20022;-80
2023/10/08 11:29:02;;;;;;;4.00;1.67;;;18.00;99.90;;;;;;4975750;28;20023;-79
2023/10/08 11:31:28;;;;;;;5.20;2.13;;;18.20;99.90;;;;;;4976975;28;20050;-80
2023/10/08 11:33:59;;;;;;;4.05;2.15;;;18.30;99.90;;;;;;4961835;28;20660;-80
2023/10/08 11:36:38;;;;;;;5.40;1.85;;;18.40;99.90;;;;;;4974397;28;20042;-78
2023/10/08 11:39:11;;;;;;;5.47;1.75;;;18.50;99.90;;;;;;4977810;28;20088;-80
2023/10/08 11:41:52;;;;;;;7.13;2.28;;;18.60;99.90;;;;;;4960323;28;20089;-79
2023/10/08 11:44:23;;;;;;;9.55;2.10;;;18.70;99.90;;;;;;4962428;28;20027;-80
2023/10/08 11:46:51;;;;;;;4.75;1.45;;;18.80;99.90;;;;;;4977692;28;20441;-78
2023/10/08 11:49:18;;;;;;;4.50;1.70;;;18.90;99.90;;;;;;4972227;28;20031;-80
2023/10/08 11:51:46;;;;;;;4.20;1.63;;;19.00;99.90;;;;;;4973318;28;20069;-78
2023/10/08 11:54:12;;;;;;;3.97;1.38;;;19.10;99.90;;;;;;4963265;28;20062;-79
2023/10/08 11:56:38;;;;;;;4.22;1.85;;;19.30;99.90;;;;;;4974815;28;20068;-81
2023/10/08 11:59:09;;;;;;;4.45;1.25;;;19.40;99.90;;;;;;4961849;28;20109;-79
2023/10/08 12:01:37;;;;;;;4.97;2.08;;;19.40;99.90;;;;;;4961250;28;20038;-78
2023/10/08 12:04:03;;;;;;;6.68;1.67;;;19.50;99.90;;;;;;4959448;28;20110;-78
2023/10/08 12:06:32;;;;;;;5.18;1.70;;;19.70;99.90;;;;;;4959922;28;20469;-80
2023/10/08 12:09:11;;;;;;;5.40;1.30;;;19.80;99.90;;;;;;4959244;28;20027;-79
2023/10/08 12:11:37;;;;;;;2.30;1.10;;;19.90;99.90;;;;;;4979864;28;20034;-80
2023/10/08 12:14:03;;;;;;;4.15;1.45;;;19.80;99.90;;;;;;4977583;28;20506;-79
2023/10/08 12:16:35;;;;;;;5.10;1.33;;;20.00;99.90;;;;;;4957281;28;20035;-80
2023/10/08 12:19:01;;;;;;;3.55;1.58;;;20.10;99.90;;;;;;4956806;28;20497;-79
2023/10/08 12:21:29;;;;;;;3.88;1.55;;;20.20;99.50;;;;;;4975708;28;20132;-81
2023/10/08 12:23:55;;;;;;;1.80;1.25;;;20.30;99.80;;;;;;4957560;28;20586;-81
2023/10/08 12:26:20;;;;;;;3.55;1.42;;;20.30;99.70;;;;;;4973881;28;20109;-79
2023/10/08 12:28:48;;;;;;;5.47;1.60;;;20.30;99.50;;;;;;4960057;28;20034;-79
2023/10/08 12:31:21;;;;;;;2.22;1.23;;;20.30;99.30;;;;;;4967838;28;20034;-80
2023/10/08 12:33:47;;;;;;;6.15;1.80;;;20.30;99.70;;;;;;4979018;28;20093;-79
2023/10/08 12:36:13;;;;;;;4.45;1.40;;;20.40;99.50;;;;;;4958146;28;20514;-79
2023/10/08 12:38:42;;;;;;;6.13;1.90;;;20.40;99.50;;;;;;4959825;28;20081;-80
2023/10/08 12:41:11;;;;;;;5.20;1.90;;;20.40;99.60;;;;;;4964429;28;20384;-79
2023/10/08 12:43:44;;;;;;;3.72;1.88;;;20.30;99.30;;;;;;4977821;28;20107;-79
2023/10/08 12:46:16;;;;;;;4.72;1.67;;;20.30;99.10;;;;;;4972131;28;20053;-79
2023/10/08 12:48:43;;;;;;;3.08;1.63;;;20.30;98.50;;;;;;4960114;28;20065;-79
2023/10/08 12:51:11;;;;;;;5.60;2.25;;;20.30;98.70;;;;;;4974036;28;20042;-80
2023/10/08 12:53:37;;;;;;;4.03;2.00;;;20.30;98.60;;;;;;4975661;28;20121;-79
2023/10/08 12:56:05;;;;;;;2.60;1.35;;;20.20;98.30;;;;;;4961134;28;20465;-80
2023/10/08 12:58:41;;;;;;;4.70;1.77;;;20.20;98.40;;;;;;4972909;28;20756;-80
2023/10/08 13:01:17;;;;;;;6.03;2.00;;;20.10;98.30;;;;;;4964444;28;20031;-80
2023/10/08 13:03:53;;;;;;;3.30;1.50;;;20.10;98.50;;;;;;4980193;28;20054;-79
2023/10/08 13:06:22;;;;;;;2.28;1.17;;;20.10;98.50;;;;;;4943434;28;20034;-79
2023/10/08 13:08:57;;;;;;;2.95;1.35;;;20.10;98.70;;;;;;4966941;28;20042;-81
2023/10/08 13:11:25;;;;;;;4.70;1.38;;;20.10;98.40;;;;;;4972153;28;20517;-80
2023/10/08 13:13:50;;;;;;;2.70;1.38;;;20.10;98.60;;;;;;4960050;28;20073;-82
2023/10/08 13:16:16;;;;;;;1.80;1.27;;;20.10;98.50;;;;;;4962054;28;20494;-79
2023/10/08 13:18:43;;;;;;;4.80;1.33;;;20.10;98.50;;;;;;4964810;28;20693;-79
2023/10/08 13:21:09;;;;;;;4.50;1.58;;;20.10;98.40;;;;;;4970994;28;20031;-80
2023/10/08 13:23:35;;;;;;;2.88;1.30;;;20.10;98.60;;;;;;4961971;28;20034;-79
2023/10/08 13:26:04;;;;;;;5.65;1.65;;;20.10;98.50;;;;;;4973617;28;20034;-78
2023/10/08 13:28:30;;;;;;;2.63;1.45;;;20.10;98.70;;;;;;4970719;28;20507;-79
2023/10/08 13:30:55;;;;;;;3.05;1.58;;;20.10;98.60;;;;;;4962601;28;20046;-80
2023/10/08 13:33:22;;;;;;;8.02;2.65;;;20.10;98.40;;;;;;4958838;28;20398;-79
2023/10/08 13:35:50;;;;;;;2.10;1.10;;;20.20;98.90;;;;;;4978961;28;20034;-79
2023/10/08 13:38:19;;;;;;;4.60;1.60;;;20.10;98.50;;;;;;4945717;28;20030;-79
2023/10/08 13:41:14;;;;;;;5.65;1.67;;;20.10;98.50;;;;;;4941267;28;20035;-80
2023/10/08 13:43:40;;;;;;;3.90;1.10;;;20.10;98.30;;;;;;4966869;28;20034;-80
2023/10/08 13:46:08;;;;;;;5.95;2.83;;;20.10;98.20;;;;;;4958868;28;20037;-79
2023/10/08 13:48:35;;;;;;;6.88;2.80;;;20.10;98.40;;;;;;4977991;28;20038;-79
2023/10/08 13:51:04;;;;;;;5.80;1.90;;;20.00;98.30;;;;;;4973992;28;20039;-78
2023/10/08 13:53:32;;;;;;;3.45;2.38;;;19.90;98.50;;;;;;4956140;28;20173;-80
2023/10/08 13:56:00;;;;;;;6.35;2.15;;;19.90;98.60;;;;;;4953145;28;20052;-78
2023/10/08 13:58:28;;;;;;;4.68;2.10;;;19.80;98.60;;;;;;4976213;28;20038;-81